Airfield :
LOGIN :

Register | Disclaimer

   EN    FR    IT 

 










Legend :    VFR   Marginal VFR   IFR   Intensive IFR   Very Intensive IFR
Visi :
Ceiling :
>= 8 km
>= 3000ft
5 to 8 km
1000 to 3000 ft
1500m to 5 km
500 to 1000 ft
800 to 1500m
200 to 500 ft
< 800m
< 200 ft
Symbols :   Thunderstorms  Fog  Heavy snow  Heavy precipitations  Wind > 20 kt
SIGMETs :     Misc.  Thunderstorms  Icing  Turbulence  Mountain Waves  Volcanic Ashes






- Airport Elevation : 17 ft
- IATA code : GRQ


EHGG - Groningen Eelde

CURRENT METAR :
  • 300355Z AUTO 34002KT 3200 BR SCT005 SCT006 BKN009 06/06 Q1022

EXPIRED METARs :
  • 300325Z AUTO VRB02KT 3400 BR FEW006 SCT008 BKN009 06/05 Q1022
  • 300225Z AUTO 35003KT 3500 BR SCT009 BKN023 OVC027 06/06 Q1022
  • 300155Z AUTO 31004KT 260V330 3200 BR FEW002 SCT008 BKN009 06/05 Q1022
  • 300125Z AUTO 29005KT 2800 BR FEW004 OVC016 06/05 Q1022

TAF TAF EHGG
Valid from the 30 at 00:00 until the 01 at 06:00 UTC


292321Z 3000/0106 36005KT 8000 BKN015
PROB40 3000/3010 4000 BR BKN008
PROB30 3000/3010 0400 FG VV000
PROB40 3010/3018 BKN008
PROB30 3018/0106 4000 BR BKN008
PROB30 3021/0106 0400 FG VV000



MET'MAP, your aeronautical weather chart ! - Copyright ORBIFLY December 2007 - Disclaimer

ORBIFLY MET'MAP TEAM :

Programming & Development : Alexandra Zaïnal
Original concept : Baudouin d'Aumeries
Technical & hardware support : Manuel Goepfert
Assistance : Marc-Olivier Méhu




SOURCES & CREDITS :

   NOAA